sensor_id;sensor_type;location;lat;lon;timestamp;P1;durP1;ratioP1;P2;durP2;ratioP2
20705;SDS011;10514;49.468;11.044;2023-08-01T00:01:27;9.40;;;4.65;;
20705;SDS011;10514;49.468;11.044;2023-08-01T00:03:53;7.90;;;4.75;;
20705;SDS011;10514;49.468;11.044;2023-08-01T00:06:19;7.47;;;4.45;;
20705;SDS011;10514;49.468;11.044;2023-08-01T00:08:45;6.93;;;3.88;;
20705;SDS011;10514;49.468;11.044;2023-08-01T00:11:11;8.40;;;4.68;;
20705;SDS011;10514;49.468;11.044;2023-08-01T00:13:39;8.15;;;4.32;;
20705;SDS011;10514;49.468;11.044;2023-08-01T00:16:05;7.90;;;3.40;;
20705;SDS011;10514;49.468;11.044;2023-08-01T00:18:31;9.73;;;4.07;;
20705;SDS011;10514;49.468;11.044;2023-08-01T00:20:56;7.72;;;3.83;;
20705;SDS011;10514;49.468;11.044;2023-08-01T00:23:23;9.98;;;3.95;;
20705;SDS011;10514;49.468;11.044;2023-08-01T00:25:49;6.78;;;3.63;;
20705;SDS011;10514;49.468;11.044;2023-08-01T00:28:17;12.27;;;3.83;;
20705;SDS011;10514;49.468;11.044;2023-08-01T00:30:43;6.47;;;3.50;;
20705;SDS011;10514;49.468;11.044;2023-08-01T00:33:08;6.28;;;3.83;;
20705;SDS011;10514;49.468;11.044;2023-08-01T00:35:34;8.98;;;4.25;;
20705;SDS011;10514;49.468;11.044;2023-08-01T00:38:00;7.43;;;3.85;;
20705;SDS011;10514;49.468;11.044;2023-08-01T00:40:32;10.18;;;4.45;;
20705;SDS011;10514;49.468;11.044;2023-08-01T00:42:58;6.60;;;4.10;;
20705;SDS011;10514;49.468;11.044;2023-08-01T00:45:25;8.50;;;4.28;;
20705;SDS011;10514;49.468;11.044;2023-08-01T00:47:52;7.90;;;3.75;;
20705;SDS011;10514;49.468;11.044;2023-08-01T00:50:19;9.30;;;4.30;;
20705;SDS011;10514;49.468;11.044;2023-08-01T00:52:45;6.80;;;4.30;;
20705;SDS011;10514;49.468;11.044;2023-08-01T00:55:12;7.90;;;4.10;;
20705;SDS011;10514;49.468;11.044;2023-08-01T00:57:39;8.25;;;4.68;;
20705;SDS011;10514;49.468;11.044;2023-08-01T01:00:05;8.25;;;3.92;;
20705;SDS011;10514;49.468;11.044;2023-08-01T01:02:31;9.75;;;4.68;;
20705;SDS011;10514;49.468;11.044;2023-08-01T01:04:57;9.52;;;4.50;;
20705;SDS011;10514;49.468;11.044;2023-08-01T01:07:23;8.60;;;4.38;;
20705;SDS011;10514;49.468;11.044;2023-08-01T01:09:49;9.35;;;4.18;;
20705;SDS011;10514;49.468;11.044;2023-08-01T01:12:15;9.80;;;4.53;;
20705;SDS011;10514;49.468;11.044;2023-08-01T01:14:41;5.82;;;4.03;;
20705;SDS011;10514;49.468;11.044;2023-08-01T01:17:06;5.97;;;3.47;;
20705;SDS011;10514;49.468;11.044;2023-08-01T01:19:32;7.13;;;3.75;;
20705;SDS011;10514;49.468;11.044;2023-08-01T01:21:57;6.55;;;3.38;;
20705;SDS011;10514;49.468;11.044;2023-08-01T01:24:23;10.70;;;3.80;;
20705;SDS011;10514;49.468;11.044;2023-08-01T01:26:50;7.63;;;3.85;;
20705;SDS011;10514;49.468;11.044;2023-08-01T01:29:18;8.73;;;4.00;;
20705;SDS011;10514;49.468;11.044;2023-08-01T01:31:44;7.78;;;3.90;;
20705;SDS011;10514;49.468;11.044;2023-08-01T01:34:10;6.97;;;4.07;;
20705;SDS011;10514;49.468;11.044;2023-08-01T01:36:36;6.97;;;3.80;;
20705;SDS011;10514;49.468;11.044;2023-08-01T01:39:02;8.00;;;4.10;;
20705;SDS011;10514;49.468;11.044;2023-08-01T01:41:27;8.98;;;3.95;;
20705;SDS011;10514;49.468;11.044;2023-08-01T01:43:53;5.85;;;4.20;;
20705;SDS011;10514;49.468;11.044;2023-08-01T01:46:18;8.65;;;4.13;;
20705;SDS011;10514;49.468;11.044;2023-08-01T01:48:44;8.35;;;3.53;;
20705;SDS011;10514;49.468;11.044;2023-08-01T01:51:09;5.47;;;3.42;;
20705;SDS011;10514;49.468;11.044;2023-08-01T01:53:35;6.32;;;4.13;;
20705;SDS011;10514;49.468;11.044;2023-08-01T01:56:01;7.75;;;4.68;;
20705;SDS011;10514;49.468;11.044;2023-08-01T01:58:26;4.68;;;3.53;;
20705;SDS011;10514;49.468;11.044;2023-08-01T02:00:52;7.45;;;3.88;;
20705;SDS011;10514;49.468;11.044;2023-08-01T02:03:17;6.95;;;3.88;;
20705;SDS011;10514;49.468;11.044;2023-08-01T02:05:44;8.30;;;3.53;;
20705;SDS011;10514;49.468;11.044;2023-08-01T02:08:09;6.72;;;3.00;;
20705;SDS011;10514;49.468;11.044;2023-08-01T02:10:35;6.68;;;3.28;;
20705;SDS011;10514;49.468;11.044;2023-08-01T02:13:00;5.82;;;3.33;;
20705;SDS011;10514;49.468;11.044;2023-08-01T02:15:26;6.20;;;3.83;;
20705;SDS011;10514;49.468;11.044;2023-08-01T02:17:51;6.05;;;3.90;;
20705;SDS011;10514;49.468;11.044;2023-08-01T02:20:17;5.40;;;3.78;;
20705;SDS011;10514;49.468;11.044;2023-08-01T02:22:43;6.57;;;3.97;;
20705;SDS011;10514;49.468;11.044;2023-08-01T02:25:09;7.05;;;2.85;;
20705;SDS011;10514;49.468;11.044;2023-08-01T02:27:34;7.80;;;3.17;;
20705;SDS011;10514;49.468;11.044;2023-08-01T02:30:00;5.60;;;3.15;;
20705;SDS011;10514;49.468;11.044;2023-08-01T02:32:27;5.13;;;3.53;;
20705;SDS011;10514;49.468;11.044;2023-08-01T02:34:52;6.38;;;2.85;;
20705;SDS011;10514;49.468;11.044;2023-08-01T02:37:18;5.30;;;2.75;;
20705;SDS011;10514;49.468;11.044;2023-08-01T02:39:44;8.07;;;3.30;;
20705;SDS011;10514;49.468;11.044;2023-08-01T02:42:09;5.40;;;2.88;;
20705;SDS011;10514;49.468;11.044;2023-08-01T02:44:34;7.30;;;3.10;;
20705;SDS011;10514;49.468;11.044;2023-08-01T02:47:00;5.10;;;3.53;;
20705;SDS011;10514;49.468;11.044;2023-08-01T02:49:26;6.40;;;3.58;;
20705;SDS011;10514;49.468;11.044;2023-08-01T02:51:51;7.45;;;3.75;;
20705;SDS011;10514;49.468;11.044;2023-08-01T02:54:17;5.55;;;3.55;;
20705;SDS011;10514;49.468;11.044;2023-08-01T02:56:42;6.07;;;2.95;;
20705;SDS011;10514;49.468;11.044;2023-08-01T02:59:08;6.40;;;3.13;;
20705;SDS011;10514;49.468;11.044;2023-08-01T03:01:34;6.25;;;3.40;;
20705;SDS011;10514;49.468;11.044;2023-08-01T03:04:03;6.55;;;3.03;;
20705;SDS011;10514;49.468;11.044;2023-08-01T03:06:30;7.60;;;3.90;;
20705;SDS011;10514;49.468;11.044;2023-08-01T03:08:56;7.38;;;3.65;;
20705;SDS011;10514;49.468;11.044;2023-08-01T03:11:22;9.68;;;3.70;;
20705;SDS011;10514;49.468;11.044;2023-08-01T03:13:48;5.63;;;3.60;;
20705;SDS011;10514;49.468;11.044;2023-08-01T03:16:13;8.10;;;4.13;;
20705;SDS011;10514;49.468;11.044;2023-08-01T03:18:39;6.90;;;3.75;;
20705;SDS011;10514;49.468;11.044;2023-08-01T03:21:05;5.45;;;3.17;;
20705;SDS011;10514;49.468;11.044;2023-08-01T03:23:31;8.00;;;3.72;;
20705;SDS011;10514;49.468;11.044;2023-08-01T03:25:57;6.38;;;3.72;;
20705;SDS011;10514;49.468;11.044;2023-08-01T03:28:23;8.57;;;3.70;;
20705;SDS011;10514;49.468;11.044;2023-08-01T03:30:49;7.32;;;3.67;;
20705;SDS011;10514;49.468;11.044;2023-08-01T03:33:18;7.10;;;3.53;;
20705;SDS011;10514;49.468;11.044;2023-08-01T03:35:44;4.78;;;3.15;;
20705;SDS011;10514;49.468;11.044;2023-08-01T03:38:09;5.60;;;3.85;;
20705;SDS011;10514;49.468;11.044;2023-08-01T03:40:35;6.40;;;3.53;;
20705;SDS011;10514;49.468;11.044;2023-08-01T03:43:01;9.82;;;4.00;;
20705;SDS011;10514;49.468;11.044;2023-08-01T03:45:27;7.30;;;3.83;;
20705;SDS011;10514;49.468;11.044;2023-08-01T03:47:53;6.35;;;3.95;;
20705;SDS011;10514;49.468;11.044;2023-08-01T03:50:18;5.00;;;3.08;;
20705;SDS011;10514;49.468;11.044;2023-08-01T03:52:44;7.25;;;4.32;;
20705;SDS011;10514;49.468;11.044;2023-08-01T03:55:10;6.25;;;3.85;;
20705;SDS011;10514;49.468;11.044;2023-08-01T03:57:36;8.95;;;3.67;;
20705;SDS011;10514;49.468;11.044;2023-08-01T04:00:03;9.43;;;3.58;;
20705;SDS011;10514;49.468;11.044;2023-08-01T04:02:30;8.82;;;3.70;;
20705;SDS011;10514;49.468;11.044;2023-08-01T04:04:56;6.53;;;3.88;;
20705;SDS011;10514;49.468;11.044;2023-08-01T04:07:22;8.75;;;4.32;;
20705;SDS011;10514;49.468;11.044;2023-08-01T04:09:48;7.40;;;3.88;;
20705;SDS011;10514;49.468;11.044;2023-08-01T04:12:13;6.78;;;3.88;;
20705;SDS011;10514;49.468;11.044;2023-08-01T04:14:39;8.68;;;4.15;;
20705;SDS011;10514;49.468;11.044;2023-08-01T04:17:05;6.32;;;3.60;;
20705;SDS011;10514;49.468;11.044;2023-08-01T04:19:31;5.70;;;3.65;;
20705;SDS011;10514;49.468;11.044;2023-08-01T04:21:56;7.70;;;3.40;;
20705;SDS011;10514;49.468;11.044;2023-08-01T04:24:22;6.72;;;3.40;;
20705;SDS011;10514;49.468;11.044;2023-08-01T04:26:50;6.57;;;3.60;;
20705;SDS011;10514;49.468;11.044;2023-08-01T04:29:16;5.55;;;3.38;;
20705;SDS011;10514;49.468;11.044;2023-08-01T04:31:43;10.10;;;3.95;;
20705;SDS011;10514;49.468;11.044;2023-08-01T04:34:09;6.20;;;3.25;;
20705;SDS011;10514;49.468;11.044;2023-08-01T04:36:34;6.03;;;3.58;;
20705;SDS011;10514;49.468;11.044;2023-08-01T04:39:00;6.85;;;3.70;;
20705;SDS011;10514;49.468;11.044;2023-08-01T04:41:26;8.23;;;3.80;;
20705;SDS011;10514;49.468;11.044;2023-08-01T04:43:53;6.85;;;3.67;;
20705;SDS011;10514;49.468;11.044;2023-08-01T04:46:18;6.57;;;3.67;;
20705;SDS011;10514;49.468;11.044;2023-08-01T04:48:44;7.10;;;3.70;;
20705;SDS011;10514;49.468;11.044;2023-08-01T04:51:10;6.75;;;3.65;;
20705;SDS011;10514;49.468;11.044;2023-08-01T04:53:36;5.82;;;4.13;;
20705;SDS011;10514;49.468;11.044;2023-08-01T04:56:02;7.78;;;3.90;;
20705;SDS011;10514;49.468;11.044;2023-08-01T04:58:27;5.90;;;3.90;;
20705;SDS011;10514;49.468;11.044;2023-08-01T05:00:53;6.28;;;3.50;;
20705;SDS011;10514;49.468;11.044;2023-08-01T05:03:19;7.72;;;4.18;;
20705;SDS011;10514;49.468;11.044;2023-08-01T05:05:44;7.38;;;4.03;;
20705;SDS011;10514;49.468;11.044;2023-08-01T05:08:10;7.97;;;4.13;;
20705;SDS011;10514;49.468;11.044;2023-08-01T05:10:36;6.90;;;3.97;;
20705;SDS011;10514;49.468;11.044;2023-08-01T05:13:02;5.78;;;3.80;;
20705;SDS011;10514;49.468;11.044;2023-08-01T05:15:28;5.53;;;3.80;;
20705;SDS011;10514;49.468;11.044;2023-08-01T05:17:53;5.75;;;4.05;;
20705;SDS011;10514;49.468;11.044;2023-08-01T05:20:20;10.30;;;4.45;;
20705;SDS011;10514;49.468;11.044;2023-08-01T05:22:46;9.68;;;4.95;;
20705;SDS011;10514;49.468;11.044;2023-08-01T05:25:12;7.75;;;4.00;;
20705;SDS011;10514;49.468;11.044;2023-08-01T05:27:38;5.78;;;3.83;;
20705;SDS011;10514;49.468;11.044;2023-08-01T05:30:04;11.23;;;4.05;;
20705;SDS011;10514;49.468;11.044;2023-08-01T05:32:29;6.95;;;3.67;;
20705;SDS011;10514;49.468;11.044;2023-08-01T05:34:55;6.28;;;3.85;;
20705;SDS011;10514;49.468;11.044;2023-08-01T05:37:21;8.40;;;4.38;;
20705;SDS011;10514;49.468;11.044;2023-08-01T05:39:46;8.48;;;3.78;;
20705;SDS011;10514;49.468;11.044;2023-08-01T05:42:12;7.32;;;3.58;;
20705;SDS011;10514;49.468;11.044;2023-08-01T05:44:38;5.90;;;3.70;;
20705;SDS011;10514;49.468;11.044;2023-08-01T05:47:03;11.20;;;4.53;;
20705;SDS011;10514;49.468;11.044;2023-08-01T05:49:29;6.50;;;3.72;;
20705;SDS011;10514;49.468;11.044;2023-08-01T05:51:55;5.68;;;3.60;;
20705;SDS011;10514;49.468;11.044;2023-08-01T05:54:20;6.93;;;4.22;;
20705;SDS011;10514;49.468;11.044;2023-08-01T05:56:46;7.05;;;3.97;;
20705;SDS011;10514;49.468;11.044;2023-08-01T05:59:12;7.72;;;3.70;;
20705;SDS011;10514;49.468;11.044;2023-08-01T06:01:38;6.78;;;3.70;;
20705;SDS011;10514;49.468;11.044;2023-08-01T06:04:04;7.55;;;3.97;;
20705;SDS011;10514;49.468;11.044;2023-08-01T06:06:30;6.70;;;3.35;;
20705;SDS011;10514;49.468;11.044;2023-08-01T06:08:56;7.03;;;3.50;;
20705;SDS011;10514;49.468;11.044;2023-08-01T06:11:21;7.95;;;3.75;;
20705;SDS011;10514;49.468;11.044;2023-08-01T06:13:47;9.25;;;4.32;;
20705;SDS011;10514;49.468;11.044;2023-08-01T06:16:13;7.55;;;4.40;;
20705;SDS011;10514;49.468;11.044;2023-08-01T06:18:39;6.20;;;3.63;;
20705;SDS011;10514;49.468;11.044;2023-08-01T06:21:04;8.20;;;4.10;;
20705;SDS011;10514;49.468;11.044;2023-08-01T06:23:30;6.00;;;3.53;;
20705;SDS011;10514;49.468;11.044;2023-08-01T06:25:56;9.02;;;4.32;;
20705;SDS011;10514;49.468;11.044;2023-08-01T06:28:22;7.13;;;3.78;;
20705;SDS011;10514;49.468;11.044;2023-08-01T06:30:48;7.22;;;3.97;;
20705;SDS011;10514;49.468;11.044;2023-08-01T06:33:14;9.30;;;4.22;;
20705;SDS011;10514;49.468;11.044;2023-08-01T06:35:39;12.82;;;4.13;;
20705;SDS011;10514;49.468;11.044;2023-08-01T06:38:05;8.32;;;3.95;;
20705;SDS011;10514;49.468;11.044;2023-08-01T06:40:31;5.72;;;3.47;;
20705;SDS011;10514;49.468;11.044;2023-08-01T06:42:57;5.55;;;3.90;;
20705;SDS011;10514;49.468;11.044;2023-08-01T06:45:22;5.63;;;3.88;;
20705;SDS011;10514;49.468;11.044;2023-08-01T06:47:48;7.03;;;3.85;;
20705;SDS011;10514;49.468;11.044;2023-08-01T06:50:14;5.07;;;3.47;;
20705;SDS011;10514;49.468;11.044;2023-08-01T06:52:39;6.03;;;3.80;;
20705;SDS011;10514;49.468;11.044;2023-08-01T06:55:05;5.43;;;3.38;;
20705;SDS011;10514;49.468;11.044;2023-08-01T06:57:31;8.60;;;4.30;;
20705;SDS011;10514;49.468;11.044;2023-08-01T06:59:57;6.93;;;3.92;;
20705;SDS011;10514;49.468;11.044;2023-08-01T07:02:22;8.02;;;4.53;;
20705;SDS011;10514;49.468;11.044;2023-08-01T07:04:48;6.97;;;4.00;;
20705;SDS011;10514;49.468;11.044;2023-08-01T07:07:14;9.20;;;3.63;;
20705;SDS011;10514;49.468;11.044;2023-08-01T07:09:40;8.10;;;4.50;;
20705;SDS011;10514;49.468;11.044;2023-08-01T07:12:06;6.50;;;4.10;;
20705;SDS011;10514;49.468;11.044;2023-08-01T07:14:32;7.78;;;3.70;;
20705;SDS011;10514;49.468;11.044;2023-08-01T07:16:58;7.82;;;3.88;;
20705;SDS011;10514;49.468;11.044;2023-08-01T07:19:26;7.97;;;4.63;;
20705;SDS011;10514;49.468;11.044;2023-08-01T07:21:51;6.32;;;3.70;;
20705;SDS011;10514;49.468;11.044;2023-08-01T07:24:17;7.18;;;3.70;;
20705;SDS011;10514;49.468;11.044;2023-08-01T07:26:43;7.20;;;3.72;;
20705;SDS011;10514;49.468;11.044;2023-08-01T07:29:09;5.97;;;3.83;;
20705;SDS011;10514;49.468;11.044;2023-08-01T07:31:36;8.73;;;3.97;;
20705;SDS011;10514;49.468;11.044;2023-08-01T07:34:02;7.78;;;3.83;;
20705;SDS011;10514;49.468;11.044;2023-08-01T07:36:28;9.73;;;4.10;;
20705;SDS011;10514;49.468;11.044;2023-08-01T07:38:54;5.72;;;3.22;;
20705;SDS011;10514;49.468;11.044;2023-08-01T07:41:21;10.43;;;4.50;;
20705;SDS011;10514;49.468;11.044;2023-08-01T07:43:47;8.00;;;4.28;;
20705;SDS011;10514;49.468;11.044;2023-08-01T07:46:13;8.35;;;3.80;;
20705;SDS011;10514;49.468;11.044;2023-08-01T07:48:39;12.32;;;4.88;;
20705;SDS011;10514;49.468;11.044;2023-08-01T07:51:05;9.25;;;4.10;;
20705;SDS011;10514;49.468;11.044;2023-08-01T07:53:33;11.50;;;4.55;;
20705;SDS011;10514;49.468;11.044;2023-08-01T07:55:59;8.43;;;4.40;;
20705;SDS011;10514;49.468;11.044;2023-08-01T07:58:27;8.93;;;4.07;;
20705;SDS011;10514;49.468;11.044;2023-08-01T08:00:53;8.98;;;4.50;;
20705;SDS011;10514;49.468;11.044;2023-08-01T08:03:19;8.40;;;4.80;;
20705;SDS011;10514;49.468;11.044;2023-08-01T08:05:47;9.77;;;4.78;;
20705;SDS011;10514;49.468;11.044;2023-08-01T08:08:13;9.65;;;4.65;;
20705;SDS011;10514;49.468;11.044;2023-08-01T08:10:39;10.70;;;4.63;;
20705;SDS011;10514;49.468;11.044;2023-08-01T08:13:04;8.52;;;4.43;;
20705;SDS011;10514;49.468;11.044;2023-08-01T08:15:30;7.75;;;3.85;;
20705;SDS011;10514;49.468;11.044;2023-08-01T08:17:59;16.65;;;4.45;;
20705;SDS011;10514;49.468;11.044;2023-08-01T08:20:26;9.93;;;3.90;;
20705;SDS011;10514;49.468;11.044;2023-08-01T08:22:52;7.25;;;4.05;;
20705;SDS011;10514;49.468;11.044;2023-08-01T08:25:20;8.02;;;3.92;;
20705;SDS011;10514;49.468;11.044;2023-08-01T08:27:45;8.48;;;4.05;;
20705;SDS011;10514;49.468;11.044;2023-08-01T08:30:13;6.25;;;3.70;;
20705;SDS011;10514;49.468;11.044;2023-08-01T08:32:39;5.93;;;3.60;;
20705;SDS011;10514;49.468;11.044;2023-08-01T08:35:05;7.20;;;3.95;;
20705;SDS011;10514;49.468;11.044;2023-08-01T08:37:30;8.57;;;4.65;;
20705;SDS011;10514;49.468;11.044;2023-08-01T08:39:56;6.38;;;3.65;;
20705;SDS011;10514;49.468;11.044;2023-08-01T08:42:22;6.57;;;3.42;;
20705;SDS011;10514;49.468;11.044;2023-08-01T08:44:49;5.35;;;3.60;;
20705;SDS011;10514;49.468;11.044;2023-08-01T08:47:19;9.82;;;3.80;;
20705;SDS011;10514;49.468;11.044;2023-08-01T08:49:47;5.93;;;3.35;;
20705;SDS011;10514;49.468;11.044;2023-08-01T08:52:13;8.00;;;4.10;;
20705;SDS011;10514;49.468;11.044;2023-08-01T08:54:39;7.43;;;3.53;;
20705;SDS011;10514;49.468;11.044;2023-08-01T08:57:08;8.13;;;3.42;;
20705;SDS011;10514;49.468;11.044;2023-08-01T08:59:34;9.45;;;4.45;;
20705;SDS011;10514;49.468;11.044;2023-08-01T09:02:01;6.00;;;4.43;;
20705;SDS011;10514;49.468;11.044;2023-08-01T09:04:29;8.88;;;4.00;;
20705;SDS011;10514;49.468;11.044;2023-08-01T09:06:57;7.85;;;3.92;;
20705;SDS011;10514;49.468;11.044;2023-08-01T09:09:26;9.70;;;4.55;;
20705;SDS011;10514;49.468;11.044;2023-08-01T09:11:53;8.70;;;4.13;;
20705;SDS011;10514;49.468;11.044;2023-08-01T09:14:21;6.22;;;3.55;;
20705;SDS011;10514;49.468;11.044;2023-08-01T09:16:47;6.32;;;3.97;;
20705;SDS011;10514;49.468;11.044;2023-08-01T09:19:17;6.97;;;4.13;;
20705;SDS011;10514;49.468;11.044;2023-08-01T09:21:43;5.88;;;3.50;;
20705;SDS011;10514;49.468;11.044;2023-08-01T09:26:39;6.95;;;4.22;;
20705;SDS011;10514;49.468;11.044;2023-08-01T09:29:06;7.22;;;4.43;;
20705;SDS011;10514;49.468;11.044;2023-08-01T09:31:35;6.28;;;4.07;;
20705;SDS011;10514;49.468;11.044;2023-08-01T09:34:03;6.85;;;3.78;;
20705;SDS011;10514;49.468;11.044;2023-08-01T09:36:33;6.53;;;3.55;;
20705;SDS011;10514;49.468;11.044;2023-08-01T09:39:02;8.32;;;4.25;;
20705;SDS011;10514;49.468;11.044;2023-08-01T09:41:29;6.28;;;4.00;;
20705;SDS011;10514;49.468;11.044;2023-08-01T09:43:55;8.90;;;4.30;;
20705;SDS011;10514;49.468;11.044;2023-08-01T09:46:21;8.77;;;3.65;;
20705;SDS011;10514;49.468;11.044;2023-08-01T09:48:47;8.70;;;3.97;;
20705;SDS011;10514;49.468;11.044;2023-08-01T09:51:14;7.78;;;3.63;;
20705;SDS011;10514;49.468;11.044;2023-08-01T09:56:14;7.50;;;3.85;;
20705;SDS011;10514;49.468;11.044;2023-08-01T09:58:41;9.38;;;4.53;;
20705;SDS011;10514;49.468;11.044;2023-08-01T10:01:07;7.97;;;3.90;;
20705;SDS011;10514;49.468;11.044;2023-08-01T10:03:33;7.88;;;3.70;;
20705;SDS011;10514;49.468;11.044;2023-08-01T10:05:59;6.13;;;3.80;;
20705;SDS011;10514;49.468;11.044;2023-08-01T10:08:26;8.82;;;4.30;;
20705;SDS011;10514;49.468;11.044;2023-08-01T10:10:53;11.07;;;4.00;;
20705;SDS011;10514;49.468;11.044;2023-08-01T10:13:21;5.78;;;3.60;;
20705;SDS011;10514;49.468;11.044;2023-08-01T10:15:49;7.85;;;3.67;;
20705;SDS011;10514;49.468;11.044;2023-08-01T10:18:16;7.70;;;3.45;;
20705;SDS011;10514;49.468;11.044;2023-08-01T10:20:42;7.90;;;3.28;;
20705;SDS011;10514;49.468;11.044;2023-08-01T10:23:09;5.50;;;3.42;;
20705;SDS011;10514;49.468;11.044;2023-08-01T10:25:34;5.15;;;3.33;;
20705;SDS011;10514;49.468;11.044;2023-08-01T10:28:02;6.50;;;3.33;;
20705;SDS011;10514;49.468;11.044;2023-08-01T10:30:28;5.65;;;3.13;;
20705;SDS011;10514;49.468;11.044;2023-08-01T10:32:55;5.55;;;3.28;;
20705;SDS011;10514;49.468;11.044;2023-08-01T10:35:37;5.00;;;3.38;;
20705;SDS011;10514;49.468;11.044;2023-08-01T10:38:08;4.95;;;3.10;;
20705;SDS011;10514;49.468;11.044;2023-08-01T10:40:39;4.47;;;2.95;;
20705;SDS011;10514;49.468;11.044;2023-08-01T10:43:08;4.57;;;2.75;;
20705;SDS011;10514;49.468;11.044;2023-08-01T10:45:47;6.03;;;2.38;;
20705;SDS011;10514;49.468;11.044;2023-08-01T10:48:13;3.42;;;2.50;;
20705;SDS011;10514;49.468;11.044;2023-08-01T10:50:39;3.55;;;1.90;;
20705;SDS011;10514;49.468;11.044;2023-08-01T10:53:08;6.65;;;2.03;;
20705;SDS011;10514;49.468;11.044;2023-08-01T10:55:38;5.05;;;1.80;;
20705;SDS011;10514;49.468;11.044;2023-08-01T10:58:08;4.63;;;1.95;;
20705;SDS011;10514;49.468;11.044;2023-08-01T11:00:34;2.88;;;1.67;;
20705;SDS011;10514;49.468;11.044;2023-08-01T11:02:59;4.18;;;1.80;;
20705;SDS011;10514;49.468;11.044;2023-08-01T11:05:25;3.92;;;1.60;;
20705;SDS011;10514;49.468;11.044;2023-08-01T11:07:53;3.25;;;1.67;;
20705;SDS011;10514;49.468;11.044;2023-08-01T11:10:21;3.40;;;1.65;;
20705;SDS011;10514;49.468;11.044;2023-08-01T11:12:47;3.28;;;2.13;;
20705;SDS011;10514;49.468;11.044;2023-08-01T11:15:13;3.20;;;1.77;;
20705;SDS011;10514;49.468;11.044;2023-08-01T11:17:48;2.78;;;1.70;;
20705;SDS011;10514;49.468;11.044;2023-08-01T11:20:15;3.92;;;1.60;;
20705;SDS011;10514;49.468;11.044;2023-08-01T11:22:58;2.25;;;1.60;;
20705;SDS011;10514;49.468;11.044;2023-08-01T11:25:33;3.67;;;1.88;;
20705;SDS011;10514;49.468;11.044;2023-08-01T11:28:14;3.13;;;1.48;;
20705;SDS011;10514;49.468;11.044;2023-08-01T11:30:41;3.03;;;1.50;;
20705;SDS011;10514;49.468;11.044;2023-08-01T11:33:18;2.60;;;1.80;;
20705;SDS011;10514;49.468;11.044;2023-08-01T11:35:54;2.63;;;1.63;;
20705;SDS011;10514;49.468;11.044;2023-08-01T11:38:25;3.58;;;1.30;;
20705;SDS011;10514;49.468;11.044;2023-08-01T11:40:54;2.20;;;1.40;;
20705;SDS011;10514;49.468;11.044;2023-08-01T11:43:21;2.65;;;1.48;;
20705;SDS011;10514;49.468;11.044;2023-08-01T11:45:53;2.00;;;1.60;;
20705;SDS011;10514;49.468;11.044;2023-08-01T11:48:24;1.63;;;1.10;;
20705;SDS011;10514;49.468;11.044;2023-08-01T11:50:59;2.58;;;0.93;;
20705;SDS011;10514;49.468;11.044;2023-08-01T11:53:26;3.58;;;1.40;;
20705;SDS011;10514;49.468;11.044;2023-08-01T11:55:52;2.03;;;1.23;;
20705;SDS011;10514;49.468;11.044;2023-08-01T11:58:27;1.60;;;0.90;;
20705;SDS011;10514;49.468;11.044;2023-08-01T12:01:27;1.38;;;0.88;;
20705;SDS011;10514;49.468;11.044;2023-08-01T12:03:47;1.00;;;0.80;;
20705;SDS011;10514;49.468;11.044;2023-08-01T12:06:14;2.22;;;0.70;;
20705;SDS011;10514;49.468;11.044;2023-08-01T12:08:44;0.82;;;0.60;;
20705;SDS011;10514;49.468;11.044;2023-08-01T12:11:20;1.98;;;0.93;;
20705;SDS011;10514;49.468;11.044;2023-08-01T12:13:47;0.80;;;0.70;;
20705;SDS011;10514;49.468;11.044;2023-08-01T12:16:13;1.23;;;0.70;;
20705;SDS011;10514;49.468;11.044;2023-08-01T12:18:42;1.42;;;0.90;;
20705;SDS011;10514;49.468;11.044;2023-08-01T12:21:09;2.42;;;0.75;;
20705;SDS011;10514;49.468;11.044;2023-08-01T12:23:35;1.10;;;0.50;;
20705;SDS011;10514;49.468;11.044;2023-08-01T12:26:01;0.95;;;0.80;;
20705;SDS011;10514;49.468;11.044;2023-08-01T12:28:26;0.98;;;0.52;;
20705;SDS011;10514;49.468;11.044;2023-08-01T12:30:52;0.95;;;0.70;;
20705;SDS011;10514;49.468;11.044;2023-08-01T12:33:18;3.88;;;1.17;;
20705;SDS011;10514;49.468;11.044;2023-08-01T12:35:43;0.80;;;0.60;;
20705;SDS011;10514;49.468;11.044;2023-08-01T12:38:09;0.80;;;0.60;;
20705;SDS011;10514;49.468;11.044;2023-08-01T12:40:35;2.50;;;0.68;;
20705;SDS011;10514;49.468;11.044;2023-08-01T12:43:00;0.98;;;0.70;;
20705;SDS011;10514;49.468;11.044;2023-08-01T12:45:26;0.70;;;0.70;;
20705;SDS011;10514;49.468;11.044;2023-08-01T12:47:52;4.43;;;0.80;;
20705;SDS011;10514;49.468;11.044;2023-08-01T12:50:17;1.38;;;0.90;;
20705;SDS011;10514;49.468;11.044;2023-08-01T12:52:43;1.35;;;0.70;;
20705;SDS011;10514;49.468;11.044;2023-08-01T12:55:08;4.05;;;0.70;;
20705;SDS011;10514;49.468;11.044;2023-08-01T12:57:34;1.95;;;0.70;;
20705;SDS011;10514;49.468;11.044;2023-08-01T13:00:00;2.83;;;0.93;;
20705;SDS011;10514;49.468;11.044;2023-08-01T13:02:26;1.55;;;0.75;;
20705;SDS011;10514;49.468;11.044;2023-08-01T13:04:52;2.03;;;0.60;;
20705;SDS011;10514;49.468;11.044;2023-08-01T13:07:18;1.98;;;0.80;;
20705;SDS011;10514;49.468;11.044;2023-08-01T13:09:43;1.85;;;0.75;;
20705;SDS011;10514;49.468;11.044;2023-08-01T13:12:09;1.50;;;0.60;;
20705;SDS011;10514;49.468;11.044;2023-08-01T13:14:35;0.95;;;0.65;;
20705;SDS011;10514;49.468;11.044;2023-08-01T13:17:01;3.67;;;0.80;;
20705;SDS011;10514;49.468;11.044;2023-08-01T13:19:27;0.98;;;0.68;;
20705;SDS011;10514;49.468;11.044;2023-08-01T13:21:53;4.20;;;0.68;;
20705;SDS011;10514;49.468;11.044;2023-08-01T13:24:19;1.13;;;0.77;;
20705;SDS011;10514;49.468;11.044;2023-08-01T13:26:44;0.73;;;0.60;;
20705;SDS011;10514;49.468;11.044;2023-08-01T13:29:10;1.05;;;0.68;;
20705;SDS011;10514;49.468;11.044;2023-08-01T13:31:35;1.40;;;0.57;;
20705;SDS011;10514;49.468;11.044;2023-08-01T13:34:01;0.85;;;0.55;;
20705;SDS011;10514;49.468;11.044;2023-08-01T13:36:27;0.98;;;0.60;;
20705;SDS011;10514;49.468;11.044;2023-08-01T13:38:54;2.42;;;0.60;;
20705;SDS011;10514;49.468;11.044;2023-08-01T13:41:24;2.50;;;0.80;;
20705;SDS011;10514;49.468;11.044;2023-08-01T13:43:50;0.57;;;0.50;;
20705;SDS011;10514;49.468;11.044;2023-08-01T13:46:16;2.40;;;0.80;;
20705;SDS011;10514;49.468;11.044;2023-08-01T13:48:44;1.45;;;0.60;;
20705;SDS011;10514;49.468;11.044;2023-08-01T13:51:10;0.55;;;0.50;;
20705;SDS011;10514;49.468;11.044;2023-08-01T13:53:36;1.73;;;0.80;;
20705;SDS011;10514;49.468;11.044;2023-08-01T13:56:09;1.20;;;0.77;;
20705;SDS011;10514;49.468;11.044;2023-08-01T13:58:35;1.20;;;0.77;;
20705;SDS011;10514;49.468;11.044;2023-08-01T14:01:05;1.35;;;0.70;;
20705;SDS011;10514;49.468;11.044;2023-08-01T14:03:32;3.13;;;1.05;;
20705;SDS011;10514;49.468;11.044;2023-08-01T14:06:03;2.78;;;0.95;;
20705;SDS011;10514;49.468;11.044;2023-08-01T14:08:29;1.75;;;0.77;;
20705;SDS011;10514;49.468;11.044;2023-08-01T14:10:55;1.88;;;1.08;;
20705;SDS011;10514;49.468;11.044;2023-08-01T14:13:21;3.70;;;0.95;;
20705;SDS011;10514;49.468;11.044;2023-08-01T14:15:47;4.35;;;0.70;;
20705;SDS011;10514;49.468;11.044;2023-08-01T14:18:12;3.05;;;1.13;;
20705;SDS011;10514;49.468;11.044;2023-08-01T14:20:38;3.22;;;0.88;;
20705;SDS011;10514;49.468;11.044;2023-08-01T14:23:03;2.20;;;0.88;;
20705;SDS011;10514;49.468;11.044;2023-08-01T14:25:29;1.60;;;0.70;;
20705;SDS011;10514;49.468;11.044;2023-08-01T14:27:54;0.75;;;0.60;;
20705;SDS011;10514;49.468;11.044;2023-08-01T14:30:20;0.55;;;0.50;;
20705;SDS011;10514;49.468;11.044;2023-08-01T14:32:46;2.38;;;0.85;;
20705;SDS011;10514;49.468;11.044;2023-08-01T14:35:12;0.77;;;0.50;;